Time;durP1;ratioP1;P1;durP2;ratioP2;P2;SDS_P1;SDS_P2;PMS_P1;PMS_P2;Temp;Humidity;BMP_temperature;BMP_pressure;BME280_temperature;BME280_humidity;BME280_pressure;Samples;Min_cycle;Max_cycle;Signal;HPM_P1;HPM_P2
2024/02/11 00:00:23;;;;;;;;;;;-0.20;99.90;;;;;;5050941;28;20005;-59
2024/02/11 00:02:53;;;;;;;;;;;-0.20;99.90;;;;;;5067645;28;20387;-58
2024/02/11 00:05:21;;;;;;;;;;;-0.20;99.90;;;;;;5063314;28;19979;-69
2024/02/11 00:07:49;;;;;;;;;;;-0.20;99.90;;;;;;5059947;28;19932;-61
2024/02/11 00:10:16;;;;;;;;;;;-0.20;99.90;;;;;;5063427;28;19931;-59
2024/02/11 00:12:43;;;;;;;;;;;-0.20;99.90;;;;;;5060022;28;19924;-61
2024/02/11 00:15:10;;;;;;;;;;;-0.20;99.90;;;;;;5055562;28;20302;-59
2024/02/11 00:17:37;;;;;;;;;;;-0.20;99.90;;;;;;5059048;28;19924;-60
2024/02/11 00:20:14;;;;;;;;;;;-0.20;99.90;;;;;;5041250;28;19936;-73
2024/02/11 00:22:42;;;;;;;;;;;-0.20;99.90;;;;;;5059064;28;20026;-58
2024/02/11 00:25:09;;;;;;;;;;;-0.30;99.90;;;;;;5068150;28;19959;-60
2024/02/11 00:27:42;;;;;;;;;;;-0.20;99.90;;;;;;5060477;28;19925;-58
2024/02/11 00:30:10;;;;;;;;;;;-0.30;99.90;;;;;;5056501;28;19924;-58
2024/02/11 00:32:37;;;;;;;;;;;-0.20;99.90;;;;;;5053549;28;20286;-65
2024/02/11 00:35:05;;;;;;;;;;;-0.30;99.90;;;;;;5067179;28;20347;-62
2024/02/11 00:37:32;;;;;;;;;;;-0.30;99.90;;;;;;5061056;28;20398;-62
2024/02/11 00:39:59;;;;;;;;;;;-0.30;99.90;;;;;;5059727;28;19935;-61
2024/02/11 00:42:28;;;;;;;;;;;-0.30;99.90;;;;;;5066929;28;19964;-58
2024/02/11 00:44:55;;;;;;;;;;;-0.30;99.90;;;;;;5051902;28;19925;-58
2024/02/11 00:47:22;;;;;;;;;;;-0.30;99.90;;;;;;5062689;28;20387;-74
2024/02/11 00:49:50;;;;;;;;;;;-0.30;99.90;;;;;;5064997;28;19931;-60
2024/02/11 00:52:17;;;;;;;;;;;-0.30;99.90;;;;;;5057531;28;19928;-64
2024/02/11 00:54:44;;;;;;;;;;;-0.30;99.90;;;;;;5064400;28;20020;-62
2024/02/11 00:57:11;;;;;;;;;;;-0.30;99.90;;;;;;5059074;28;19933;-59
2024/02/11 00:59:40;;;;;;;;;;;-0.30;99.90;;;;;;5067982;28;19956;-58
2024/02/11 01:02:09;;;;;;;;;;;-0.30;99.90;;;;;;5067904;28;19925;-62
2024/02/11 01:04:38;;;;;;;;;;;-0.30;99.90;;;;;;5064545;28;19924;-58
2024/02/11 01:07:06;;;;;;;;;;;-0.30;99.90;;;;;;5068719;28;19924;-61
2024/02/11 01:09:34;;;;;;;;;;;-0.30;99.90;;;;;;5049080;28;20340;-59
2024/02/11 01:12:01;;;;;;;;;;;-0.30;99.90;;;;;;5059692;28;20345;-58
2024/02/11 01:14:29;;;;;;;;;;;-0.30;99.90;;;;;;5054894;28;19924;-59
2024/02/11 01:16:57;;;;;;;;;;;-0.30;99.90;;;;;;5058677;28;19932;-59
2024/02/11 01:19:24;;;;;;;;;;;-0.30;99.90;;;;;;5056002;28;19970;-58
2024/02/11 01:21:53;;;;;;;;;;;-0.30;99.90;;;;;;5056956;28;19948;-58
2024/02/11 01:24:21;;;;;;;;;;;-0.30;99.90;;;;;;5057885;28;19971;-58
2024/02/11 01:26:48;;;;;;;;;;;-0.30;99.90;;;;;;5063097;28;19925;-59
2024/02/11 01:29:15;;;;;;;;;;;-0.30;99.90;;;;;;5065614;28;19924;-58
2024/02/11 01:31:42;;;;;;;;;;;-0.30;99.90;;;;;;5050566;28;19925;-58
2024/02/11 01:34:09;;;;;;;;;;;-0.30;99.90;;;;;;5052498;28;19925;-58
2024/02/11 01:36:36;;;;;;;;;;;-0.30;99.90;;;;;;5055434;28;20449;-58
2024/02/11 01:39:03;;;;;;;;;;;-0.30;99.90;;;;;;5052339;28;19925;-62
2024/02/11 01:41:30;;;;;;;;;;;-0.20;99.90;;;;;;5052319;28;19936;-58
2024/02/11 01:43:58;;;;;;;;;;;-0.30;99.90;;;;;;5063526;28;20035;-61
2024/02/11 01:46:25;;;;;;;;;;;-0.30;99.90;;;;;;5060826;28;19925;-58
2024/02/11 01:48:52;;;;;;;;;;;-0.20;99.90;;;;;;5064236;28;19932;-58
2024/02/11 01:51:19;;;;;;;;;;;-0.20;99.90;;;;;;5060123;28;19979;-58
2024/02/11 01:53:49;;;;;;;;;;;-0.30;99.90;;;;;;5058648;28;19925;-59
2024/02/11 01:56:20;;;;;;;;;;;-0.20;99.90;;;;;;5061104;28;19928;-58
2024/02/11 01:58:48;;;;;;;;;;;-0.30;99.90;;;;;;5044702;28;19932;-61
2024/02/11 02:01:16;;;;;;;;;;;-0.20;99.90;;;;;;5064205;28;19932;-63
2024/02/11 02:03:44;;;;;;;;;;;-0.20;99.90;;;;;;5059966;28;20314;-58
2024/02/11 02:06:11;;;;;;;;;;;-0.20;99.90;;;;;;5055428;28;19971;-71
2024/02/11 02:08:39;;;;;;;;;;;-0.20;99.90;;;;;;5061961;28;19974;-58
2024/02/11 02:11:06;;;;;;;;;;;-0.30;99.90;;;;;;5072640;28;19971;-63
2024/02/11 02:13:33;;;;;;;;;;;-0.20;99.90;;;;;;5067835;28;20491;-63
2024/02/11 02:16:00;;;;;;;;;;;-0.30;99.90;;;;;;5063706;28;19935;-59
2024/02/11 02:18:28;;;;;;;;;;;-0.20;99.90;;;;;;5064448;28;19979;-58
2024/02/11 02:20:55;;;;;;;;;;;-0.30;99.90;;;;;;5064301;28;19924;-71
2024/02/11 02:23:22;;;;;;;;;;;-0.30;99.90;;;;;;5056217;28;21093;-58
2024/02/11 02:25:49;;;;;;;;;;;-0.30;99.90;;;;;;5061014;28;19925;-58
2024/02/11 02:28:16;;;;;;;;;;;-0.20;99.90;;;;;;5060048;28;20412;-65
2024/02/11 02:30:43;;;;;;;;;;;-0.20;99.90;;;;;;5056273;28;19925;-58
2024/02/11 02:33:09;;;;;;;;;;;-0.20;99.90;;;;;;5054277;28;19986;-59
2024/02/11 02:35:36;;;;;;;;;;;-0.20;99.90;;;;;;5071797;28;19931;-62
2024/02/11 02:38:03;;;;;;;;;;;-0.20;99.90;;;;;;5074568;28;19929;-58
2024/02/11 02:40:32;;;;;;;;;;;-0.20;99.90;;;;;;5055884;28;20310;-58
2024/02/11 02:43:00;;;;;;;;;;;-0.20;99.90;;;;;;5060238;28;20276;-69
2024/02/11 02:45:27;;;;;;;;;;;-0.20;99.90;;;;;;5062680;28;19971;-58
2024/02/11 02:47:54;;;;;;;;;;;-0.20;99.90;;;;;;5056217;28;19925;-58
2024/02/11 02:50:21;;;;;;;;;;;-0.20;99.90;;;;;;5051027;28;19925;-74
2024/02/11 02:52:48;;;;;;;;;;;-0.20;99.90;;;;;;5059480;28;19947;-60
2024/02/11 02:55:17;;;;;;;;;;;-0.20;99.90;;;;;;5063827;28;19931;-59
2024/02/11 02:57:44;;;;;;;;;;;-0.20;99.90;;;;;;5066781;28;19924;-59
2024/02/11 03:00:11;;;;;;;;;;;-0.20;99.90;;;;;;5056479;28;19929;-59
2024/02/11 03:02:43;;;;;;;;;;;-0.20;99.90;;;;;;5063189;28;20464;-58
2024/02/11 03:05:10;;;;;;;;;;;-0.20;99.90;;;;;;5071841;28;19933;-61
2024/02/11 03:07:40;;;;;;;;;;;-0.20;99.90;;;;;;5064510;28;19924;-58
2024/02/11 03:10:07;;;;;;;;;;;-0.20;99.90;;;;;;5066075;28;19931;-61
2024/02/11 03:12:34;;;;;;;;;;;-0.20;99.90;;;;;;5064029;28;19974;-59
2024/02/11 03:15:01;;;;;;;;;;;-0.10;99.90;;;;;;5058145;28;19924;-58
2024/02/11 03:17:28;;;;;;;;;;;-0.20;99.90;;;;;;5070525;28;19930;-60
2024/02/11 03:19:54;;;;;;;;;;;-0.10;99.90;;;;;;5066561;28;20028;-59
2024/02/11 03:22:22;;;;;;;;;;;-0.10;99.90;;;;;;5071710;28;19924;-58
2024/02/11 03:24:49;;;;;;;;;;;-0.10;99.90;;;;;;5067309;28;19925;-63
2024/02/11 03:27:16;;;;;;;;;;;-0.10;99.90;;;;;;5066418;28;20401;-58
2024/02/11 03:29:43;;;;;;;;;;;-0.10;99.90;;;;;;5063678;28;19978;-61
2024/02/11 03:32:09;;;;;;;;;;;-0.10;99.90;;;;;;5061641;28;20303;-70
2024/02/11 03:34:36;;;;;;;;;;;-0.10;99.90;;;;;;5063074;28;19931;-64
2024/02/11 03:37:04;;;;;;;;;;;-0.10;99.90;;;;;;5064649;28;20027;-59
2024/02/11 03:39:31;;;;;;;;;;;-0.10;99.90;;;;;;5065619;28;19925;-59
2024/02/11 03:41:57;;;;;;;;;;;-0.10;99.90;;;;;;5059777;28;19928;-58
2024/02/11 03:44:24;;;;;;;;;;;-0.10;99.90;;;;;;5057413;28;20720;-59
2024/02/11 03:46:51;;;;;;;;;;;-0.10;99.90;;;;;;5058937;28;19932;-59
2024/02/11 03:49:18;;;;;;;;;;;-0.10;99.90;;;;;;5054855;28;19964;-59
2024/02/11 03:51:46;;;;;;;;;;;-0.10;99.90;;;;;;5061545;28;19995;-59
2024/02/11 03:54:13;;;;;;;;;;;0.00;99.90;;;;;;5064198;28;20433;-58
2024/02/11 03:56:40;;;;;;;;;;;0.00;99.90;;;;;;5070001;28;19929;-58
2024/02/11 03:59:10;;;;;;;;;;;0.00;99.90;;;;;;5052651;28;19951;-66
2024/02/11 04:01:37;;;;;;;;;;;0.00;99.90;;;;;;5058987;28;19928;-63
2024/02/11 04:04:04;;;;;;;;;;;0.00;99.90;;;;;;5069937;28;19974;-64
2024/02/11 04:06:34;;;;;;;;;;;0.00;99.90;;;;;;5064360;28;19931;-58
2024/02/11 04:09:01;;;;;;;;;;;0.00;99.90;;;;;;5065758;28;20023;-59
2024/02/11 04:11:28;;;;;;;;;;;0.00;99.90;;;;;;5069889;28;20392;-59
2024/02/11 04:13:55;;;;;;;;;;;0.00;99.90;;;;;;5056259;28;19925;-58
2024/02/11 04:16:22;;;;;;;;;;;0.00;99.90;;;;;;5067952;28;19924;-58
2024/02/11 04:18:49;;;;;;;;;;;0.00;99.90;;;;;;5060672;28;20027;-65
2024/02/11 04:21:20;;;;;;;;;;;0.00;99.90;;;;;;5059835;28;20290;-58
2024/02/11 04:23:48;;;;;;;;;;;0.00;99.90;;;;;;5071190;28;19924;-59
2024/02/11 04:26:17;;;;;;;;;;;0.00;99.90;;;;;;5071185;28;20015;-58
2024/02/11 04:28:47;;;;;;;;;;;0.00;99.90;;;;;;5068343;28;19956;-59
2024/02/11 04:31:16;;;;;;;;;;;0.00;99.90;;;;;;5064790;28;20336;-64
2024/02/11 04:33:46;;;;;;;;;;;0.00;99.90;;;;;;5057385;28;19925;-59
2024/02/11 04:36:15;;;;;;;;;;;0.00;99.90;;;;;;5070060;28;19959;-58
2024/02/11 04:38:44;;;;;;;;;;;0.00;99.90;;;;;;5063526;28;19928;-59
2024/02/11 04:41:11;;;;;;;;;;;0.00;99.90;;;;;;5055756;28;19924;-58
2024/02/11 04:43:38;;;;;;;;;;;0.00;99.90;;;;;;5054518;28;20343;-62
2024/02/11 04:46:05;;;;;;;;;;;0.00;99.90;;;;;;5053389;28;19924;-61
2024/02/11 04:48:32;;;;;;;;;;;0.00;99.90;;;;;;5057481;28;19924;-62
2024/02/11 04:50:59;;;;;;;;;;;0.00;99.90;;;;;;5058756;28;19925;-58
2024/02/11 04:53:30;;;;;;;;;;;0.00;99.90;;;;;;5054598;28;19931;-58
2024/02/11 04:55:57;;;;;;;;;;;0.00;99.90;;;;;;5053479;28;20685;-59
2024/02/11 04:58:26;;;;;;;;;;;0.00;99.90;;;;;;5072371;28;20003;-59
2024/02/11 05:00:54;;;;;;;;;;;0.00;99.90;;;;;;5043967;28;20371;-58
2024/02/11 05:03:22;;;;;;;;;;;0.00;99.90;;;;;;5063188;28;20413;-58
2024/02/11 05:05:50;;;;;;;;;;;0.00;99.90;;;;;;5052918;28;19940;-59
2024/02/11 05:08:19;;;;;;;;;;;0.00;99.90;;;;;;5065538;28;19978;-62
2024/02/11 05:10:51;;;;;;;;;;;0.00;99.90;;;;;;5068843;28;19980;-59
2024/02/11 05:13:20;;;;;;;;;;;0.00;99.90;;;;;;5053687;28;19925;-62
2024/02/11 05:15:50;;;;;;;;;;;0.00;99.90;;;;;;5051851;28;20455;-59
2024/02/11 05:18:18;;;;;;;;;;;0.00;99.90;;;;;;5046486;28;19925;-58
2024/02/11 05:20:47;;;;;;;;;;;0.00;99.90;;;;;;5062164;28;19935;-58
2024/02/11 05:23:15;;;;;;;;;;;0.00;99.90;;;;;;5052970;28;19924;-58
2024/02/11 05:25:46;;;;;;;;;;;0.00;99.90;;;;;;5046272;28;19932;-58
2024/02/11 05:28:15;;;;;;;;;;;0.00;99.90;;;;;;5056021;28;19931;-58
2024/02/11 05:30:45;;;;;;;;;;;0.00;99.90;;;;;;5053467;28;19983;-59
2024/02/11 05:33:17;;;;;;;;;;;0.00;99.90;;;;;;5048072;28;19932;-62
2024/02/11 05:35:46;;;;;;;;;;;0.00;99.90;;;;;;5057628;28;19925;-60
2024/02/11 05:38:13;;;;;;;;;;;0.00;99.90;;;;;;5051641;28;19930;-59
2024/02/11 05:40:41;;;;;;;;;;;0.00;99.90;;;;;;5052411;28;19982;-62
2024/02/11 05:43:09;;;;;;;;;;;0.00;99.90;;;;;;5067833;28;19931;-60
2024/02/11 05:45:36;;;;;;;;;;;0.00;99.90;;;;;;5058167;28;19924;-59
2024/02/11 05:48:03;;;;;;;;;;;0.00;99.90;;;;;;5053903;28;19932;-74
2024/02/11 05:50:30;;;;;;;;;;;0.00;99.90;;;;;;5067365;28;19956;-64
2024/02/11 05:52:57;;;;;;;;;;;0.00;99.90;;;;;;5057742;28;19924;-58
2024/02/11 05:55:26;;;;;;;;;;;0.00;99.90;;;;;;5055016;28;20040;-60
2024/02/11 05:57:53;;;;;;;;;;;0.00;99.90;;;;;;5059279;28;19931;-60
2024/02/11 06:00:21;;;;;;;;;;;0.00;99.90;;;;;;5057704;28;19935;-59
2024/02/11 06:02:49;;;;;;;;;;;0.00;99.90;;;;;;5058179;28;19937;-60
2024/02/11 06:05:16;;;;;;;;;;;0.00;99.90;;;;;;5049524;28;19924;-58
2024/02/11 06:07:46;;;;;;;;;;;0.00;99.90;;;;;;5056065;28;19979;-65
2024/02/11 06:10:13;;;;;;;;;;;0.00;99.90;;;;;;5058828;28;19924;-59
2024/02/11 06:12:40;;;;;;;;;;;0.00;99.90;;;;;;5062696;28;19968;-59
2024/02/11 06:15:09;;;;;;;;;;;0.00;99.90;;;;;;5063076;28;19948;-59
2024/02/11 06:17:36;;;;;;;;;;;0.00;99.90;;;;;;5057934;28;19928;-58
2024/02/11 06:20:04;;;;;;;;;;;0.00;99.90;;;;;;5062352;28;19928;-59
2024/02/11 06:22:31;;;;;;;;;;;0.00;99.90;;;;;;5067155;28;19925;-59
2024/02/11 06:24:58;;;;;;;;;;;0.00;99.90;;;;;;5050780;28;19932;-59
2024/02/11 06:27:25;;;;;;;;;;;0.00;99.90;;;;;;5060054;28;20382;-58
2024/02/11 06:29:54;;;;;;;;;;;0.00;99.90;;;;;;5051600;28;20755;-59
2024/02/11 06:32:21;;;;;;;;;;;0.00;99.90;;;;;;5065810;28;19986;-58
2024/02/11 06:34:48;;;;;;;;;;;0.00;99.90;;;;;;5052849;28;19925;-61
2024/02/11 06:37:15;;;;;;;;;;;0.00;99.90;;;;;;5069476;28;20043;-59
2024/02/11 06:39:44;;;;;;;;;;;-0.10;99.90;;;;;;5054861;28;19971;-62
2024/02/11 06:42:11;;;;;;;;;;;0.00;99.90;;;;;;5061309;28;19925;-60
2024/02/11 06:44:41;;;;;;;;;;;-0.10;99.90;;;;;;5061446;28;19925;-59
2024/02/11 06:47:11;;;;;;;;;;;0.00;99.90;;;;;;5062500;28;20547;-62
2024/02/11 06:49:38;;;;;;;;;;;-0.10;99.90;;;;;;5055930;28;19924;-59
2024/02/11 06:52:09;;;;;;;;;;;-0.10;99.90;;;;;;5055132;28;19924;-59
2024/02/11 06:54:39;;;;;;;;;;;-0.10;99.90;;;;;;5053704;28;19929;-59
2024/02/11 06:57:05;;;;;;;;;;;-0.10;99.90;;;;;;5060724;28;19933;-60
2024/02/11 06:59:35;;;;;;;;;;;-0.10;99.90;;;;;;5063808;28;19924;-65
2024/02/11 07:02:04;;;;;;;;;;;0.00;99.90;;;;;;5055820;28;19928;-63
2024/02/11 07:04:34;;;;;;;;;;;0.00;99.90;;;;;;5068072;28;19925;-61
2024/02/11 07:07:04;;;;;;;;;;;0.00;99.90;;;;;;5062651;28;19925;-61
2024/02/11 07:09:31;;;;;;;;;;;-0.10;99.90;;;;;;5062804;28;20027;-58
2024/02/11 07:11:57;;;;;;;;;;;0.00;99.90;;;;;;5059745;28;19971;-58
2024/02/11 07:14:25;;;;;;;;;;;0.00;99.90;;;;;;5070682;28;19925;-62
2024/02/11 07:16:53;;;;;;;;;;;0.00;99.90;;;;;;5071439;28;19925;-59
2024/02/11 07:19:24;;;;;;;;;;;0.00;99.90;;;;;;5068269;28;19928;-60
2024/02/11 07:21:52;;;;;;;;;;;0.00;99.90;;;;;;5046592;28;19931;-61
2024/02/11 07:24:19;;;;;;;;;;;0.00;99.90;;;;;;5056987;28;19925;-62
2024/02/11 07:26:49;;;;;;;;;;;0.00;99.90;;;;;;5067051;28;19924;-64
2024/02/11 07:29:16;;;;;;;;;;;0.00;99.90;;;;;;5070352;28;19951;-59
2024/02/11 07:31:43;;;;;;;;;;;0.00;99.90;;;;;;5070660;28;20333;-59
2024/02/11 07:34:10;;;;;;;;;;;0.00;99.90;;;;;;5060096;28;19938;-66
2024/02/11 07:36:42;;;;;;;;;;;0.00;99.90;;;;;;5065594;28;20345;-62
2024/02/11 07:39:08;;;;;;;;;;;0.00;99.90;;;;;;5059497;28;19925;-60
2024/02/11 07:41:35;;;;;;;;;;;0.00;99.90;;;;;;5056126;28;20047;-61
2024/02/11 07:44:03;;;;;;;;;;;0.00;99.90;;;;;;5053557;28;19929;-62
2024/02/11 07:46:30;;;;;;;;;;;0.00;99.90;;;;;;5060284;28;19928;-59
2024/02/11 07:49:03;;;;;;;;;;;0.00;99.90;;;;;;5051285;28;19932;-68
2024/02/11 07:51:30;;;;;;;;;;;0.00;99.90;;;;;;5058201;28;20439;-59
2024/02/11 07:53:57;;;;;;;;;;;0.10;99.90;;;;;;5053279;28;19924;-67
2024/02/11 07:56:25;;;;;;;;;;;0.10;99.90;;;;;;5064463;28;20508;-60
2024/02/11 07:58:52;;;;;;;;;;;0.10;99.90;;;;;;5066920;28;19924;-59
2024/02/11 08:01:19;;;;;;;;;;;0.10;99.90;;;;;;5059994;28;19931;-60
2024/02/11 08:03:47;;;;;;;;;;;0.10;99.90;;;;;;5061910;28;19925;-60
2024/02/11 08:06:14;;;;;;;;;;;0.10;99.90;;;;;;5061662;28;19924;-68
2024/02/11 08:08:41;;;;;;;;;;;0.20;99.90;;;;;;5064340;28;19933;-59
2024/02/11 08:11:08;;;;;;;;;;;0.20;99.90;;;;;;5067916;28;19924;-60
2024/02/11 08:13:35;;;;;;;;;;;0.20;99.90;;;;;;5054802;28;19925;-59
2024/02/11 08:16:03;;;;;;;;;;;0.20;99.90;;;;;;5061035;28;19924;-59
2024/02/11 08:18:30;;;;;;;;;;;0.20;99.90;;;;;;5054657;28;19931;-62
2024/02/11 08:20:57;;;;;;;;;;;0.20;99.90;;;;;;5049507;28;20048;-59
2024/02/11 08:23:27;;;;;;;;;;;0.20;99.90;;;;;;5053811;28;19925;-58
2024/02/11 08:25:55;;;;;;;;;;;0.30;99.90;;;;;;5060282;28;20024;-61
2024/02/11 08:28:22;;;;;;;;;;;0.30;99.90;;;;;;5053531;28;20043;-59
2024/02/11 08:30:49;;;;;;;;;;;0.40;99.90;;;;;;5053314;28;19933;-59
2024/02/11 08:33:16;;;;;;;;;;;0.30;99.90;;;;;;5059712;28;20397;-60
2024/02/11 08:35:47;;;;;;;;;;;0.40;99.90;;;;;;5057519;28;19959;-59
2024/02/11 08:38:14;;;;;;;;;;;0.40;99.90;;;;;;5061287;28;19924;-62
2024/02/11 08:40:41;;;;;;;;;;;0.30;99.90;;;;;;5062346;28;19975;-58
2024/02/11 08:43:08;;;;;;;;;;;0.30;99.90;;;;;;5059726;28;19931;-62
2024/02/11 08:45:36;;;;;;;;;;;0.40;99.90;;;;;;5059005;28;19970;-58
2024/02/11 08:48:03;;;;;;;;;;;0.40;99.90;;;;;;5060647;28;19925;-59
2024/02/11 08:50:30;;;;;;;;;;;0.40;99.90;;;;;;5064414;28;19925;-58
2024/02/11 08:52:59;;;;;;;;;;;0.40;99.90;;;;;;5064795;28;20382;-58
2024/02/11 08:55:27;;;;;;;;;;;0.40;99.90;;;;;;5060873;28;19932;-59
2024/02/11 08:57:53;;;;;;;;;;;0.40;99.90;;;;;;5053060;28;19924;-59
2024/02/11 09:00:21;;;;;;;;;;;0.40;99.90;;;;;;5060458;28;20041;-59
2024/02/11 09:02:48;;;;;;;;;;;0.50;99.90;;;;;;5052864;28;20019;-60
2024/02/11 09:05:15;;;;;;;;;;;0.50;99.90;;;;;;5060939;28;20291;-59
2024/02/11 09:07:42;;;;;;;;;;;0.50;99.90;;;;;;5062292;28;20317;-59
2024/02/11 09:10:13;;;;;;;;;;;0.60;99.90;;;;;;5053495;28;19925;-60
2024/02/11 09:12:41;;;;;;;;;;;0.50;99.90;;;;;;5058099;28;19932;-59
2024/02/11 09:15:09;;;;;;;;;;;0.50;99.90;;;;;;5057534;28;19959;-75
2024/02/11 09:17:42;;;;;;;;;;;0.50;99.90;;;;;;5053690;28;19930;-62
2024/02/11 09:20:12;;;;;;;;;;;0.50;99.90;;;;;;5062210;28;20335;-61
2024/02/11 09:22:41;;;;;;;;;;;0.50;99.90;;;;;;5052676;28;20310;-58
2024/02/11 09:25:10;;;;;;;;;;;0.50;99.90;;;;;;5055598;28;19925;-59
2024/02/11 09:27:38;;;;;;;;;;;0.60;99.90;;;;;;5057877;28;19932;-58
2024/02/11 09:30:07;;;;;;;;;;;0.60;99.90;;;;;;5062565;28;20019;-76
2024/02/11 09:32:34;;;;;;;;;;;0.60;99.90;;;;;;5059950;28;19924;-58
2024/02/11 09:35:03;;;;;;;;;;;0.60;99.90;;;;;;5063352;28;20618;-58
2024/02/11 09:37:33;;;;;;;;;;;0.70;99.90;;;;;;5063009;28;19990;-59
2024/02/11 09:40:00;;;;;;;;;;;0.70;99.90;;;;;;5058178;28;20290;-58
2024/02/11 09:42:27;;;;;;;;;;;0.70;99.90;;;;;;5065419;28;19932;-71
2024/02/11 09:44:54;;;;;;;;;;;0.80;99.90;;;;;;5058914;28;19925;-61
2024/02/11 09:47:21;;;;;;;;;;;0.80;99.90;;;;;;5056675;28;19950;-58
2024/02/11 09:49:51;;;;;;;;;;;0.80;99.90;;;;;;5068207;28;19928;-64
2024/02/11 09:52:20;;;;;;;;;;;0.80;99.90;;;;;;5060951;28;19936;-58
2024/02/11 09:54:47;;;;;;;;;;;0.80;99.90;;;;;;5063226;28;20046;-61
2024/02/11 09:57:14;;;;;;;;;;;0.90;99.90;;;;;;5060435;28;19924;-62
2024/02/11 09:59:41;;;;;;;;;;;0.80;99.90;;;;;;5053908;28;20298;-59
2024/02/11 10:02:14;;;;;;;;;;;0.80;99.90;;;;;;5056126;28;20355;-65
2024/02/11 10:04:43;;;;;;;;;;;0.80;99.90;;;;;;5052051;28;19925;-58
2024/02/11 10:07:24;;;;;;;;;;;0.80;99.90;;;;;;5053991;28;19979;-61
2024/02/11 10:09:56;;;;;;;;;;;0.80;99.90;;;;;;5061249;28;19955;-60
2024/02/11 10:12:24;;;;;;;;;;;0.80;99.90;;;;;;5051873;28;20359;-58
2024/02/11 10:14:54;;;;;;;;;;;0.70;99.90;;;;;;5058335;28;19925;-60
2024/02/11 10:17:21;;;;;;;;;;;0.80;99.90;;;;;;5063184;28;19932;-61
2024/02/11 10:19:52;;;;;;;;;;;0.80;99.90;;;;;;5061695;28;19960;-66
2024/02/11 10:22:21;;;;;;;;;;;0.80;99.90;;;;;;5059125;28;19925;-59
2024/02/11 10:24:55;;;;;;;;;;;0.80;99.90;;;;;;5052192;28;19940;-59
2024/02/11 10:27:23;;;;;;;;;;;0.70;99.90;;;;;;5055652;28;19925;-58
2024/02/11 10:29:50;;;;;;;;;;;0.70;99.90;;;;;;5055060;28;20379;-58
2024/02/11 10:32:18;;;;;;;;;;;0.70;99.90;;;;;;5056541;28;20031;-59
2024/02/11 10:34:45;;;;;;;;;;;0.70;99.90;;;;;;5041436;28;20283;-61
2024/02/11 10:37:15;;;;;;;;;;;0.80;99.90;;;;;;5047145;28;19956;-63
2024/02/11 10:39:42;;;;;;;;;;;0.80;99.90;;;;;;5066662;28;20363;-62
2024/02/11 10:42:10;;;;;;;;;;;0.80;99.90;;;;;;5057480;28;20047;-63
2024/02/11 10:44:40;;;;;;;;;;;0.80;99.90;;;;;;5054115;28;20585;-61
2024/02/11 10:47:08;;;;;;;;;;;0.80;99.90;;;;;;5053687;28;19924;-61
2024/02/11 10:49:35;;;;;;;;;;;0.80;99.90;;;;;;5063161;28;19931;-62
2024/02/11 10:52:12;;;;;;;;;;;0.80;99.90;;;;;;5056111;28;19940;-61
2024/02/11 10:54:41;;;;;;;;;;;0.90;99.90;;;;;;5052494;28;19936;-61
2024/02/11 10:57:12;;;;;;;;;;;0.90;99.90;;;;;;5058878;28;19939;-65
2024/02/11 10:59:43;;;;;;;;;;;0.90;99.90;;;;;;5054864;28;19933;-59
2024/02/11 11:02:12;;;;;;;;;;;0.90;99.90;;;;;;5053471;28;20323;-60
2024/02/11 11:04:40;;;;;;;;;;;0.90;99.90;;;;;;5066140;28;20461;-61
2024/02/11 11:07:12;;;;;;;;;;;0.90;99.90;;;;;;5058946;28;20286;-62
2024/02/11 11:09:39;;;;;;;;;;;0.90;99.90;;;;;;5070679;28;19929;-59
2024/02/11 11:12:09;;;;;;;;;;;1.00;99.90;;;;;;5061874;28;19928;-62
2024/02/11 11:14:43;;;;;;;;;;;0.90;99.90;;;;;;5055298;28;19932;-59
2024/02/11 11:17:16;;;;;;;;;;;0.90;99.90;;;;;;5054343;28;20763;-64
2024/02/11 11:19:47;;;;;;;;;;;0.90;99.90;;;;;;5051117;28;19924;-60
2024/02/11 11:22:21;;;;;;;;;;;0.90;99.90;;;;;;5059080;28;20299;-61
2024/02/11 11:24:49;;;;;;;;;;;0.90;99.90;;;;;;5059104;28;19939;-62
2024/02/11 11:27:17;;;;;;;;;;;1.00;99.90;;;;;;5058366;28;19929;-63
2024/02/11 11:29:44;;;;;;;;;;;1.00;99.90;;;;;;5061022;28;19947;-63
2024/02/11 11:32:11;;;;;;;;;;;1.00;99.90;;;;;;5053497;28;19974;-59
2024/02/11 11:34:38;;;;;;;;;;;1.00;99.90;;;;;;5057648;28;19925;-61
2024/02/11 11:37:10;;;;;;;;;;;1.00;99.90;;;;;;5056628;28;19929;-61
2024/02/11 11:39:37;;;;;;;;;;;1.00;99.90;;;;;;5058601;28;20380;-65
2024/02/11 11:42:05;;;;;;;;;;;1.00;99.90;;;;;;5059721;28;20369;-60
2024/02/11 11:44:32;;;;;;;;;;;1.00;99.90;;;;;;5060752;28;19936;-64
2024/02/11 11:46:59;;;;;;;;;;;1.00;99.90;;;;;;5061281;28;20333;-59
2024/02/11 11:49:27;;;;;;;;;;;1.00;99.90;;;;;;5062927;28;19925;-58
2024/02/11 11:52:00;;;;;;;;;;;0.90;99.90;;;;;;5056973;28;20019;-64
2024/02/11 11:54:27;;;;;;;;;;;1.00;99.90;;;;;;5050271;28;20294;-61
2024/02/11 11:56:58;;;;;;;;;;;1.00;99.90;;;;;;5051302;28;19995;-63
2024/02/11 11:59:25;;;;;;;;;;;0.90;99.90;;;;;;5053137;28;19998;-59
2024/02/11 12:01:53;;;;;;;;;;;0.90;99.90;;;;;;5054568;28;19955;-62
2024/02/11 12:04:20;;;;;;;;;;;0.90;99.90;;;;;;5060090;28;20450;-68
2024/02/11 12:06:47;;;;;;;;;;;0.90;99.90;;;;;;5055686;28;19932;-62
2024/02/11 12:09:14;;;;;;;;;;;0.80;99.90;;;;;;5055913;28;20293;-61
2024/02/11 12:11:43;;;;;;;;;;;0.80;99.90;;;;;;5056800;28;19982;-60
2024/02/11 12:14:11;;;;;;;;;;;0.90;99.90;;;;;;5053317;28;19936;-66
2024/02/11 12:16:38;;;;;;;;;;;0.80;99.90;;;;;;5053632;28;19940;-59
2024/02/11 12:19:05;;;;;;;;;;;0.80;99.90;;;;;;5050853;28;20027;-71
2024/02/11 12:21:32;;;;;;;;;;;0.80;99.90;;;;;;5051160;28;19932;-63
2024/02/11 12:24:08;;;;;;;;;;;0.90;99.90;;;;;;5057267;28;20393;-62
2024/02/11 12:26:38;;;;;;;;;;;0.90;99.90;;;;;;5055092;28;19924;-60
2024/02/11 12:29:05;;;;;;;;;;;0.90;99.90;;;;;;5054674;28;20338;-60
2024/02/11 12:31:33;;;;;;;;;;;0.90;99.90;;;;;;5060897;28;19928;-60
2024/02/11 12:34:00;;;;;;;;;;;0.90;99.90;;;;;;5058859;28;20003;-60
2024/02/11 12:36:28;;;;;;;;;;;0.90;99.90;;;;;;5051615;28;19951;-59
2024/02/11 12:38:55;;;;;;;;;;;0.80;99.90;;;;;;5057421;28;20326;-60
2024/02/11 12:41:23;;;;;;;;;;;0.80;99.90;;;;;;5054303;28;19939;-58
2024/02/11 12:43:54;;;;;;;;;;;0.80;99.90;;;;;;5057521;28;20367;-61
2024/02/11 12:46:22;;;;;;;;;;;0.90;99.90;;;;;;5064346;28;20744;-59
2024/02/11 12:48:49;;;;;;;;;;;0.90;99.90;;;;;;5061796;28;20034;-58
2024/02/11 12:51:18;;;;;;;;;;;0.90;99.90;;;;;;5058769;28;20629;-61
2024/02/11 12:53:46;;;;;;;;;;;0.90;99.90;;;;;;5049168;28;19928;-63
2024/02/11 12:56:14;;;;;;;;;;;0.90;99.90;;;;;;5058455;28;19960;-62
2024/02/11 12:58:42;;;;;;;;;;;0.90;99.90;;;;;;5048788;28;20599;-59
2024/02/11 13:01:10;;;;;;;;;;;0.90;99.90;;;;;;5051257;28;19963;-69
2024/02/11 13:03:41;;;;;;;;;;;0.90;99.90;;;;;;5059577;28;19924;-62
2024/02/11 13:06:08;;;;;;;;;;;0.90;99.90;;;;;;5050033;28;20069;-62
2024/02/11 13:08:36;;;;;;;;;;;1.00;99.90;;;;;;5056690;28;20376;-60
2024/02/11 13:11:05;;;;;;;;;;;0.90;99.90;;;;;;5052334;28;19929;-61
2024/02/11 13:13:32;;;;;;;;;;;0.90;99.90;;;;;;5056647;28;19975;-64
2024/02/11 13:16:01;;;;;;;;;;;1.00;99.90;;;;;;5054591;28;19925;-59
2024/02/11 13:18:28;;;;;;;;;;;1.00;99.90;;;;;;5053806;28;19971;-58
2024/02/11 13:20:57;;;;;;;;;;;1.00;99.90;;;;;;5051167;28;19932;-60
2024/02/11 13:23:24;;;;;;;;;;;1.00;99.90;;;;;;5051933;28;19925;-59
2024/02/11 13:25:52;;;;;;;;;;;1.00;99.90;;;;;;5051747;28;19925;-61
2024/02/11 13:28:19;;;;;;;;;;;0.90;99.90;;;;;;5052066;28;19929;-58
2024/02/11 13:30:48;;;;;;;;;;;0.90;99.90;;;;;;5051742;28;19982;-62
2024/02/11 13:33:15;;;;;;;;;;;0.90;99.90;;;;;;5054648;28;20015;-59
2024/02/11 13:35:43;;;;;;;;;;;0.90;99.90;;;;;;5057512;28;19924;-63
2024/02/11 13:38:10;;;;;;;;;;;0.90;99.90;;;;;;5055502;28;19929;-60
2024/02/11 13:40:37;;;;;;;;;;;0.80;99.90;;;;;;5051884;28;19933;-58
2024/02/11 13:43:04;;;;;;;;;;;0.70;99.90;;;;;;5048550;28;19932;-61
2024/02/11 13:45:31;;;;;;;;;;;0.70;99.90;;;;;;5052101;28;20428;-59
2024/02/11 13:47:59;;;;;;;;;;;0.70;99.90;;;;;;5051780;28;19931;-58
2024/02/11 13:50:29;;;;;;;;;;;0.70;99.90;;;;;;5049919;28;19925;-59
2024/02/11 13:52:56;;;;;;;;;;;0.70;99.90;;;;;;5054233;28;19932;-64
2024/02/11 13:55:23;;;;;;;;;;;0.70;99.90;;;;;;5049799;28;20266;-60
2024/02/11 13:57:51;;;;;;;;;;;0.70;99.90;;;;;;5055122;28;19947;-64
2024/02/11 14:00:18;;;;;;;;;;;0.70;99.90;;;;;;5050080;28;19928;-61
2024/02/11 14:02:45;;;;;;;;;;;0.70;99.90;;;;;;5045362;28;19925;-61
2024/02/11 14:05:12;;;;;;;;;;;0.70;99.90;;;;;;5050103;28;19937;-65
2024/02/11 14:07:39;;;;;;;;;;;0.70;99.90;;;;;;5049983;28;19982;-59
2024/02/11 14:10:06;;;;;;;;;;;0.70;99.90;;;;;;5057056;28;20315;-64
2024/02/11 14:12:35;;;;;;;;;;;0.70;99.90;;;;;;5059953;28;20363;-59
2024/02/11 14:15:11;;;;;;;;;;;0.60;99.90;;;;;;5046575;28;19928;-68
2024/02/11 14:17:42;;;;;;;;;;;0.60;99.90;;;;;;5047067;28;19945;-62
2024/02/11 14:20:11;;;;;;;;;;;0.60;99.90;;;;;;5049378;28;19928;-64
2024/02/11 14:22:38;;;;;;;;;;;0.60;99.90;;;;;;5053484;28;19925;-64
2024/02/11 14:25:06;;;;;;;;;;;0.60;99.90;;;;;;5049400;28;19959;-65
2024/02/11 14:27:33;;;;;;;;;;;0.60;99.90;;;;;;5055039;28;19960;-61
2024/02/11 14:30:00;;;;;;;;;;;0.60;99.90;;;;;;5053797;28;19986;-62